createdAt,value
2024-05-09T00:01:07.800Z,102663.13
2024-05-09T00:04:12.453Z,102657.78
2024-05-09T00:07:17.170Z,102653.34
2024-05-09T00:10:32.682Z,102660.47
2024-05-09T00:13:40.487Z,102657.81
2024-05-09T00:16:45.281Z,102656.94
2024-05-09T00:19:49.920Z,102661.41
2024-05-09T00:22:54.705Z,102651.63
2024-05-09T00:26:02.039Z,102649.84
2024-05-09T00:29:06.807Z,102640.09
2024-05-09T00:32:11.525Z,102639.22
2024-05-09T00:35:16.331Z,102641.84
2024-05-09T00:38:21.093Z,102643.59
2024-05-09T00:41:28.429Z,102633.84
2024-05-09T00:44:33.114Z,102634.75
2024-05-09T00:47:38.072Z,102634.75
2024-05-09T00:50:43.932Z,102633.00
2024-05-09T00:53:49.073Z,102630.31
2024-05-09T00:56:56.321Z,102628.56
2024-05-09T01:00:02.403Z,102636.56
2024-05-09T01:03:08.246Z,102634.81
2024-05-09T01:06:13.316Z,102639.28
2024-05-09T01:09:17.983Z,102634.81
2024-05-09T01:12:25.302Z,102640.16
2024-05-09T01:15:29.984Z,102646.38
2024-05-09T01:18:34.702Z,102643.72
2024-05-09T01:21:43.177Z,102648.16
2024-05-09T01:24:51.985Z,102645.50
2024-05-09T01:27:56.619Z,102639.28
2024-05-09T01:31:01.218Z,102638.38
2024-05-09T01:34:05.809Z,102649.06
2024-05-09T01:37:10.411Z,102647.31
2024-05-09T01:40:25.184Z,102647.31
2024-05-09T01:43:38.217Z,102642.88
2024-05-09T01:46:42.801Z,102650.88
2024-05-09T01:49:47.664Z,102638.47
2024-05-09T01:52:52.316Z,102643.81
2024-05-09T01:55:59.587Z,102647.38
2024-05-09T01:59:04.943Z,102642.03
2024-05-09T02:02:09.973Z,102642.94
2024-05-09T02:05:14.815Z,102638.47
2024-05-09T02:08:21.537Z,102634.88
2024-05-09T02:11:29.145Z,102633.13
2024-05-09T02:14:33.840Z,102634.03
2024-05-09T02:17:38.743Z,102639.38
2024-05-09T02:20:44.833Z,102636.69
2024-05-09T02:23:49.477Z,102634.97
2024-05-09T02:26:56.738Z,102635.84
2024-05-09T02:30:01.725Z,102638.53
2024-05-09T02:33:06.812Z,102640.34
2024-05-09T02:36:12.615Z,102627.84
2024-05-09T02:39:14.675Z,102625.25
2024-05-09T02:42:22.230Z,102618.13
2024-05-09T02:45:24.909Z,102618.13
2024-05-09T02:48:29.682Z,102619.91
2024-05-09T02:51:31.710Z,102617.28
2024-05-09T02:54:36.280Z,102615.47
2024-05-09T02:57:43.905Z,102619.03
2024-05-09T03:00:46.156Z,102617.28
2024-05-09T03:03:52.267Z,102619.03
2024-05-09T03:06:54.320Z,102630.63
2024-05-09T03:09:59.675Z,102629.72
2024-05-09T03:13:06.312Z,102622.63
2024-05-09T03:16:10.887Z,102628.88
2024-05-09T03:19:16.112Z,102631.50
2024-05-09T03:22:20.906Z,102636.00
2024-05-09T03:25:22.915Z,102633.34
2024-05-09T03:28:30.086Z,102633.34
2024-05-09T03:31:32.126Z,102636.00
2024-05-09T03:34:36.947Z,102639.56
2024-05-09T03:37:41.500Z,102644.00
2024-05-09T03:40:50.532Z,102630.69
2024-05-09T03:43:58.234Z,102636.91
2024-05-09T03:47:02.842Z,102638.69
2024-05-09T03:50:05.927Z,102632.47
2024-05-09T03:53:15.823Z,102636.94
2024-05-09T03:56:20.449Z,102635.13
2024-05-09T03:59:25.224Z,102631.59
2024-05-09T04:02:30.049Z,102634.28
2024-05-09T04:05:32.958Z,102635.16
2024-05-09T04:08:37.821Z,102631.63
2024-05-09T04:11:42.750Z,102638.75
2024-05-09T04:14:47.412Z,102634.28
2024-05-09T04:17:52.146Z,102633.44
2024-05-09T04:20:54.327Z,102638.75
2024-05-09T04:23:58.919Z,102638.75
2024-05-09T04:27:00.904Z,102646.75
2024-05-09T04:30:15.402Z,102644.94
2024-05-09T04:33:26.648Z,102643.19
2024-05-09T04:36:28.845Z,102649.44
2024-05-09T04:39:33.449Z,102648.50
2024-05-09T04:42:38.044Z,102647.63
2024-05-09T04:45:42.655Z,102647.63
2024-05-09T04:48:47.270Z,102656.53
2024-05-09T04:51:51.874Z,102656.53
2024-05-09T04:54:54.807Z,102661.00
2024-05-09T04:58:01.137Z,102658.34
2024-05-09T05:01:05.809Z,102657.44
2024-05-09T05:04:10.705Z,102655.66
2024-05-09T05:07:12.721Z,102659.19
2024-05-09T05:10:25.120Z,102653.00
2024-05-09T05:13:31.809Z,102666.34
2024-05-09T05:16:39.182Z,102663.66
2024-05-09T05:19:41.393Z,102665.44
2024-05-09T05:22:47.929Z,102655.69
2024-05-09T05:25:51.365Z,102663.69
2024-05-09T05:28:56.122Z,102664.56
2024-05-09T05:32:00.849Z,102665.44
2024-05-09T05:35:05.549Z,102665.44
2024-05-09T05:38:08.911Z,102663.69
2024-05-09T05:41:13.592Z,102666.34
2024-05-09T05:44:15.952Z,102658.34
2024-05-09T05:47:24.872Z,102652.16
2024-05-09T05:50:32.704Z,102655.69
2024-05-09T05:53:41.056Z,102661.91
2024-05-09T05:56:43.191Z,102663.66
2024-05-09T05:59:47.899Z,102654.78
2024-05-09T06:02:53.101Z,102661.84
2024-05-09T06:05:58.435Z,102659.22
2024-05-09T06:09:00.492Z,102661.00
2024-05-09T06:12:05.314Z,102660.13
2024-05-09T06:15:07.954Z,102661.00
2024-05-09T06:18:17.687Z,102650.34
2024-05-09T06:21:20.024Z,102650.34
2024-05-09T06:24:24.640Z,102648.56
2024-05-09T06:27:29.237Z,102643.22
2024-05-09T06:30:38.705Z,102653.00
2024-05-09T06:33:48.437Z,102642.34
2024-05-09T06:36:50.736Z,102644.13
2024-05-09T06:39:55.316Z,102636.13
2024-05-09T06:43:00.719Z,102632.56
2024-05-09T06:46:02.748Z,102633.44
2024-05-09T06:49:11.598Z,102634.34
2024-05-09T06:52:14.421Z,102633.44
2024-05-09T06:55:18.988Z,102627.19
2024-05-09T06:58:21.125Z,102630.78
2024-05-09T07:01:25.834Z,102633.44
2024-05-09T07:04:33.309Z,102629.00
2024-05-09T07:07:35.315Z,102629.84
2024-05-09T07:10:39.883Z,102619.16
2024-05-09T07:13:44.740Z,102626.28
2024-05-09T07:16:46.821Z,102624.44
2024-05-09T07:19:54.348Z,102625.28
2024-05-09T07:22:58.950Z,102625.28
2024-05-09T07:26:03.591Z,102625.28
2024-05-09T07:29:05.657Z,102626.19
2024-05-09T07:32:10.503Z,102626.19
2024-05-09T07:35:15.194Z,102626.19
2024-05-09T07:38:20.259Z,102620.84
2024-05-09T07:41:22.305Z,102622.63
2024-05-09T07:44:26.907Z,102620.84
2024-05-09T07:48:57.384Z,102614.63
2024-05-09T07:53:00.777Z,102615.50
2024-05-09T07:54:23.552Z,102616.41
2024-05-09T07:57:25.703Z,102620.84
2024-05-09T08:00:31.984Z,102617.28
2024-05-09T08:03:34.439Z,102614.63
2024-05-09T08:06:42.601Z,102610.19
2024-05-09T08:09:46.067Z,102611.06
2024-05-09T08:12:50.825Z,102611.94
2024-05-09T08:15:52.986Z,102603.94
2024-05-09T08:18:57.887Z,102598.59
2024-05-09T08:22:07.153Z,102601.28
2024-05-09T08:25:10.675Z,102602.13
2024-05-09T08:28:16.713Z,102602.13
2024-05-09T08:31:18.784Z,102593.28
2024-05-09T08:34:23.444Z,102590.59
2024-05-09T08:37:32.805Z,102596.78
2024-05-09T08:40:41.560Z,102590.59
2024-05-09T08:43:44.749Z,102593.22
2024-05-09T08:46:50.433Z,102592.34
2024-05-09T08:49:58.678Z,102587.00
2024-05-09T08:53:03.417Z,102587.00
2024-05-09T08:56:12.363Z,102582.56
2024-05-09T08:59:23.568Z,102584.34
2024-05-09T09:02:30.072Z,102582.56
2024-05-09T09:05:37.101Z,102582.50
2024-05-09T09:08:44.488Z,102581.63
2024-05-09T09:11:49.076Z,102583.34
2024-05-09T09:14:51.092Z,102579.78
2024-05-09T09:18:00.179Z,102567.34
2024-05-09T09:21:05.451Z,102576.22
2024-05-09T09:24:10.419Z,102575.34
2024-05-09T09:27:16.687Z,102581.53
2024-05-09T09:30:31.490Z,102574.44
2024-05-09T09:33:45.022Z,102568.22
2024-05-09T09:36:48.809Z,102574.44
2024-05-09T09:40:31.937Z,102579.78
2024-05-09T09:43:36.418Z,102579.75
2024-05-09T09:46:42.076Z,102574.44
2024-05-09T09:49:46.172Z,102570.84
2024-05-09T09:52:54.687Z,102576.19
2024-05-09T09:56:00.601Z,102562.00
2024-05-09T09:59:07.311Z,102569.13
2024-05-09T10:02:13.873Z,102569.13
2024-05-09T10:05:16.947Z,102565.50
2024-05-09T10:08:22.122Z,102562.91
2024-05-09T10:11:30.207Z,102554.88
2024-05-09T10:14:43.230Z,102552.22
2024-05-09T10:17:50.941Z,102562.91
2024-05-09T10:20:56.030Z,102554.00
2024-05-09T10:23:59.544Z,102556.69
2024-05-09T10:27:07.020Z,102546.00
2024-05-09T10:30:14.662Z,102550.50
2024-05-09T10:33:25.989Z,102555.78
2024-05-09T10:36:31.944Z,102548.66
2024-05-09T10:39:36.203Z,102538.00
2024-05-09T10:42:44.464Z,102542.44
2024-05-09T10:45:46.515Z,102544.16
2024-05-09T10:48:51.279Z,102540.66
2024-05-09T10:51:53.431Z,102537.09
2024-05-09T10:54:59.923Z,102538.88
2024-05-09T10:58:05.553Z,102534.44
2024-05-09T11:01:11.298Z,102530.00
2024-05-09T11:04:14.430Z,102521.09
2024-05-09T11:07:21.597Z,102527.31
2024-05-09T11:10:27.898Z,102522.00
2024-05-09T11:13:42.316Z,102515.75
2024-05-09T11:16:46.903Z,102515.72
2024-05-09T11:19:50.786Z,102511.31
2024-05-09T11:22:55.413Z,102512.16
2024-05-09T11:25:58.772Z,102501.50
2024-05-09T11:29:06.109Z,102495.31
2024-05-09T11:32:08.883Z,102501.50
2024-05-09T11:35:13.534Z,102494.41
2024-05-09T11:38:18.411Z,102494.41
2024-05-09T11:41:20.498Z,102496.16
2024-05-09T11:44:27.972Z,102482.81
2024-05-09T11:50:37.658Z,102477.53
2024-05-09T11:53:39.667Z,102478.41
2024-05-09T11:56:44.277Z,102481.09
2024-05-09T11:59:51.516Z,102473.97
2024-05-09T12:02:54.330Z,102460.63
2024-05-09T12:05:59.394Z,102463.28
2024-05-09T12:09:01.651Z,102473.09
2024-05-09T12:12:07.684Z,102463.25
2024-05-09T12:15:12.395Z,102453.47
2024-05-09T12:18:17.246Z,102454.34
2024-05-09T12:21:21.849Z,102449.03
2024-05-09T12:24:25.127Z,102448.13
2024-05-09T12:27:29.810Z,102449.03
2024-05-09T12:30:38.143Z,102453.47
2024-05-09T12:33:45.041Z,102449.03
2024-05-09T12:36:47.170Z,102448.13
2024-05-09T12:39:51.832Z,102442.81
2024-05-09T12:42:53.940Z,102444.56
2024-05-09T12:46:01.574Z,102439.25
2024-05-09T12:49:06.978Z,102433.91
2024-05-09T12:52:09.425Z,102420.56
2024-05-09T12:55:14.341Z,102412.56
2024-05-09T12:58:17.320Z,102413.44
2024-05-09T13:01:25.053Z,102409.84
2024-05-09T13:04:27.279Z,102401.88
2024-05-09T13:07:32.131Z,102397.44
2024-05-09T13:10:36.816Z,102394.78
2024-05-09T13:16:46.048Z,102381.44
2024-05-09T13:19:48.035Z,102380.53
2024-05-09T13:22:52.611Z,102374.34
2024-05-09T13:25:57.292Z,102378.78
2024-05-09T13:28:59.371Z,102379.66
2024-05-09T13:32:07.133Z,102375.22
2024-05-09T13:35:09.223Z,102370.75
2024-05-09T13:38:13.992Z,102376.09
2024-05-09T13:41:18.579Z,102368.94
2024-05-09T13:44:20.510Z,102367.16
2024-05-09T13:47:28.003Z,102371.59
2024-05-09T13:50:34.519Z,102366.28
2024-05-09T13:53:41.159Z,102352.03
2024-05-09T13:56:43.191Z,102355.59
2024-05-09T13:59:47.856Z,102350.28
2024-05-09T14:02:52.498Z,102347.59
2024-05-09T14:05:57.316Z,102336.09
2024-05-09T14:08:59.443Z,102340.53
2024-05-09T14:12:04.008Z,102335.19
2024-05-09T14:15:06.520Z,102342.28
2024-05-09T14:18:14.563Z,102333.41
2024-05-09T14:21:19.525Z,102324.47
2024-05-09T14:24:21.539Z,102324.47
2024-05-09T14:27:26.256Z,102317.34
2024-05-09T14:30:34.897Z,102314.69
2024-05-09T14:33:45.252Z,102306.69
2024-05-09T14:36:47.358Z,102309.34
2024-05-09T14:39:51.983Z,102309.34
2024-05-09T14:42:54.061Z,102310.25
2024-05-09T14:45:59.371Z,102296.03
2024-05-09T14:49:04.484Z,102302.22
2024-05-09T14:52:09.536Z,102304.03
2024-05-09T14:55:12.426Z,102293.34
2024-05-09T14:58:17.424Z,102285.41
2024-05-09T15:01:20.566Z,102288.00
2024-05-09T15:04:28.603Z,102282.69
2024-05-09T15:07:30.698Z,102278.22
2024-05-09T15:10:36.896Z,102279.06
2024-05-09T15:13:42.518Z,102273.75
2024-05-09T15:16:44.658Z,102273.75
2024-05-09T15:19:52.232Z,102277.28
2024-05-09T15:22:54.220Z,102271.06
2024-05-09T15:25:58.823Z,102268.38
2024-05-09T15:29:00.791Z,102269.25
2024-05-09T15:32:05.528Z,102270.16
2024-05-09T15:35:10.394Z,102263.06
2024-05-09T15:38:17.929Z,102258.63
2024-05-09T15:41:22.800Z,102255.94
2024-05-09T15:44:25.545Z,102253.25
2024-05-09T15:47:30.696Z,102247.03
2024-05-09T15:50:41.008Z,102247.94
2024-05-09T15:53:44.391Z,102247.00
2024-05-09T15:56:50.887Z,102248.75
2024-05-09T15:59:52.991Z,102245.16
2024-05-09T16:02:57.690Z,102246.94
2024-05-09T16:06:02.442Z,102239.81
2024-05-09T16:09:07.320Z,102240.63
2024-05-09T16:12:09.311Z,102241.56
2024-05-09T16:15:13.911Z,102237.97
2024-05-09T16:18:16.098Z,102246.91
2024-05-09T16:21:23.327Z,102235.31
2024-05-09T16:24:25.273Z,102237.97
2024-05-09T16:27:30.120Z,102237.97
2024-05-09T16:30:35.407Z,102235.31
2024-05-09T16:33:41.141Z,102233.50
2024-05-09T16:36:45.988Z,102228.19
2024-05-09T16:39:50.675Z,102229.06
2024-05-09T16:42:52.824Z,102240.59
2024-05-09T16:45:57.492Z,102238.78
2024-05-09T16:49:02.218Z,102237.00
2024-05-09T16:52:09.860Z,102230.78
2024-05-09T16:55:12.096Z,102236.13
2024-05-09T16:58:16.982Z,102234.34
2024-05-09T17:01:19.180Z,102229.88
2024-05-09T17:04:23.966Z,102230.78
2024-05-09T17:07:31.332Z,102228.13
2024-05-09T17:10:35.092Z,102233.47
2024-05-09T17:13:40.935Z,102229.91
2024-05-09T17:16:45.611Z,102229.06
2024-05-09T17:19:50.499Z,102229.91
2024-05-09T17:22:55.213Z,102226.34
2024-05-09T17:25:59.907Z,102230.78
2024-05-09T17:29:05.375Z,102219.25
2024-05-09T17:32:08.234Z,102227.22
2024-05-09T17:35:12.902Z,102225.47
2024-05-09T17:38:17.686Z,102221.00
2024-05-09T17:41:22.273Z,102222.78
2024-05-09T17:44:24.258Z,102221.91
2024-05-09T17:47:28.934Z,102229.91
2024-05-09T17:50:35.397Z,102231.72
2024-05-09T17:53:44.499Z,102229.06
2024-05-09T17:56:46.973Z,102232.63
2024-05-09T17:59:53.943Z,102230.91
2024-05-09T18:02:56.001Z,102233.56
2024-05-09T18:06:00.981Z,102236.25
2024-05-09T18:09:08.617Z,102243.31
2024-05-09T18:12:10.581Z,102237.09
2024-05-09T18:15:15.234Z,102238.84
2024-05-09T18:18:17.394Z,102243.31
2024-05-09T18:21:22.007Z,102247.75
2024-05-09T18:24:26.746Z,102246.91
2024-05-09T18:27:31.518Z,102252.25
2024-05-09T18:30:36.425Z,102246.91
2024-05-09T18:33:42.059Z,102251.38
2024-05-09T18:36:44.328Z,102260.28
2024-05-09T18:39:51.629Z,102261.16
2024-05-09T18:42:56.522Z,102263.00
2024-05-09T18:46:01.253Z,102268.34
2024-05-09T18:49:03.557Z,102273.66
2024-05-09T18:52:09.131Z,102273.66
2024-05-09T18:55:14.292Z,102279.88
2024-05-09T18:58:19.319Z,102282.56
2024-05-09T19:01:21.507Z,102284.34
2024-05-09T19:04:26.524Z,102283.44
2024-05-09T19:07:28.603Z,102289.66
2024-05-09T19:10:36.509Z,102284.34
2024-05-09T19:13:38.785Z,102287.00
2024-05-09T19:16:44.720Z,102287.94
2024-05-09T19:19:47.343Z,102287.94
2024-05-09T19:22:52.174Z,102299.47
2024-05-09T19:25:56.887Z,102298.59
2024-05-09T19:29:01.486Z,102291.50
2024-05-09T19:32:03.954Z,102295.09
2024-05-09T19:35:09.123Z,102295.09
2024-05-09T19:38:13.943Z,102295.09
2024-05-09T19:41:18.519Z,102297.75
2024-05-09T19:44:23.146Z,102295.09
2024-05-09T19:47:26.488Z,102290.63
2024-05-09T19:50:37.860Z,102292.41
2024-05-09T19:53:44.669Z,102299.56
2024-05-09T19:56:51.970Z,102298.63
2024-05-09T19:59:56.571Z,102301.31
2024-05-09T20:03:01.301Z,102305.75
2024-05-09T20:06:03.684Z,102303.13
2024-05-09T20:09:08.232Z,102304.91
2024-05-09T20:12:12.826Z,102311.13
2024-05-09T20:15:17.481Z,102305.84
2024-05-09T20:18:22.324Z,102307.59
2024-05-09T20:21:24.687Z,102308.53
2024-05-09T20:24:29.276Z,102312.97
2024-05-09T20:27:33.932Z,102305.84
2024-05-09T20:30:38.982Z,102311.19
2024-05-09T20:33:43.983Z,102306.75
2024-05-09T20:36:45.991Z,102303.19
2024-05-09T20:39:50.582Z,102302.25
2024-05-09T20:42:55.300Z,102305.84
2024-05-09T20:46:00.184Z,102297.84
2024-05-09T20:49:02.413Z,102303.19
2024-05-09T20:52:07.651Z,102302.31
2024-05-09T20:55:09.693Z,102297.03
2024-05-09T20:58:17.271Z,102297.91
2024-05-09T21:01:19.382Z,102297.91
2024-05-09T21:04:24.278Z,102302.34
2024-05-09T21:07:26.373Z,102300.59
2024-05-09T21:10:33.342Z,102305.09
2024-05-09T21:13:38.826Z,102306.81
2024-05-09T21:16:43.612Z,102301.47
2024-05-09T21:19:49.318Z,102304.16
2024-05-09T21:22:51.284Z,102307.69
2024-05-09T21:25:55.872Z,102307.69
2024-05-09T21:29:00.531Z,102305.03
2024-05-09T21:32:05.167Z,102300.56
2024-05-09T21:35:07.585Z,102305.94
2024-05-09T21:38:13.506Z,102305.94
2024-05-09T21:41:15.906Z,102305.09
2024-05-09T21:44:23.424Z,102301.53
2024-05-09T21:47:25.772Z,102305.09
2024-05-09T21:50:37.057Z,102298.88
2024-05-09T21:53:42.772Z,102304.25
2024-05-09T21:56:47.402Z,102301.59
2024-05-09T21:59:54.878Z,102300.69
2024-05-09T22:02:57.891Z,102298.91
2024-05-09T22:06:03.375Z,102297.09
2024-05-09T22:09:05.736Z,102294.47
2024-05-09T22:12:10.343Z,102294.44
2024-05-09T22:15:15.029Z,102294.47
2024-05-09T22:18:19.688Z,102305.09
2024-05-09T22:21:21.726Z,102294.53
2024-05-09T22:24:26.318Z,102298.06
2024-05-09T22:27:28.361Z,102299.88
2024-05-09T22:30:39.038Z,102290.09
2024-05-09T22:33:47.883Z,102292.78
2024-05-09T22:36:50.451Z,102291.03
2024-05-09T22:39:55.495Z,102302.59
2024-05-09T22:42:57.600Z,102309.72
2024-05-09T22:46:05.245Z,102304.38
2024-05-09T22:49:10.040Z,102298.16
2024-05-09T22:52:14.844Z,102303.44
2024-05-09T22:55:16.903Z,102304.38
2024-05-09T22:58:22.199Z,102304.38
2024-05-09T23:01:27.663Z,102300.81
2024-05-09T23:04:32.463Z,102301.72
2024-05-09T23:07:34.470Z,102302.59
2024-05-09T23:10:39.256Z,102302.59
2024-05-09T23:13:41.294Z,102307.94
2024-05-09T23:16:48.802Z,102298.22
2024-05-09T23:19:53.371Z,102297.31
2024-05-09T23:22:57.976Z,102299.09
2024-05-09T23:26:02.552Z,102300.03
2024-05-09T23:29:04.555Z,102304.44
2024-05-09T23:32:12.118Z,102292.91
2024-05-09T23:35:14.122Z,102303.56
2024-05-09T23:38:21.747Z,102288.47
2024-05-09T23:41:27.979Z,102285.78
2024-05-09T23:44:32.557Z,102286.72
2024-05-09T23:47:37.713Z,102284.91
2024-05-09T23:50:42.339Z,102284.91
2024-05-09T23:53:44.959Z,102279.56
2024-05-09T23:56:49.537Z,102279.56
2024-05-09T23:59:51.545Z,102276.91
